sensor_id;sensor_type;location;lat;lon;timestamp;P1;durP1;ratioP1;P2;durP2;ratioP2
26756;SDS011;23848;49.798;10.228;2023-05-10T00:02:13;7.13;;;5.20;;
26756;SDS011;23848;49.798;10.228;2023-05-10T00:04:41;7.95;;;5.32;;
26756;SDS011;23848;49.798;10.228;2023-05-10T00:07:09;7.28;;;5.40;;
26756;SDS011;23848;49.798;10.228;2023-05-10T00:09:38;8.05;;;5.80;;
26756;SDS011;23848;49.798;10.228;2023-05-10T00:12:06;6.55;;;4.88;;
26756;SDS011;23848;49.798;10.228;2023-05-10T00:14:34;9.77;;;5.80;;
26756;SDS011;23848;49.798;10.228;2023-05-10T00:17:02;8.63;;;5.13;;
26756;SDS011;23848;49.798;10.228;2023-05-10T00:19:32;8.38;;;4.65;;
26756;SDS011;23848;49.798;10.228;2023-05-10T00:22:00;7.07;;;4.55;;
26756;SDS011;23848;49.798;10.228;2023-05-10T00:24:29;5.70;;;4.25;;
26756;SDS011;23848;49.798;10.228;2023-05-10T00:26:57;6.13;;;3.70;;
26756;SDS011;23848;49.798;10.228;2023-05-10T00:29:26;5.40;;;4.00;;
26756;SDS011;23848;49.798;10.228;2023-05-10T00:31:55;5.82;;;3.80;;
26756;SDS011;23848;49.798;10.228;2023-05-10T00:34:23;5.68;;;3.80;;
26756;SDS011;23848;49.798;10.228;2023-05-10T00:36:53;6.45;;;3.53;;
26756;SDS011;23848;49.798;10.228;2023-05-10T00:39:22;6.30;;;3.70;;
26756;SDS011;23848;49.798;10.228;2023-05-10T00:41:50;4.85;;;3.10;;
26756;SDS011;23848;49.798;10.228;2023-05-10T00:44:18;5.07;;;3.25;;
26756;SDS011;23848;49.798;10.228;2023-05-10T00:46:47;5.10;;;3.15;;
26756;SDS011;23848;49.798;10.228;2023-05-10T00:49:15;4.28;;;2.78;;
26756;SDS011;23848;49.798;10.228;2023-05-10T00:51:44;5.03;;;2.90;;
26756;SDS011;23848;49.798;10.228;2023-05-10T00:54:14;4.03;;;2.75;;
26756;SDS011;23848;49.798;10.228;2023-05-10T00:56:42;4.53;;;2.75;;
26756;SDS011;23848;49.798;10.228;2023-05-10T00:59:14;4.38;;;2.85;;
26756;SDS011;23848;49.798;10.228;2023-05-10T01:01:44;3.80;;;2.50;;
26756;SDS011;23848;49.798;10.228;2023-05-10T01:04:13;3.10;;;2.20;;
26756;SDS011;23848;49.798;10.228;2023-05-10T01:06:42;3.72;;;2.20;;
26756;SDS011;23848;49.798;10.228;2023-05-10T01:09:10;2.80;;;1.70;;
26756;SDS011;23848;49.798;10.228;2023-05-10T01:11:40;3.10;;;2.00;;
26756;SDS011;23848;49.798;10.228;2023-05-10T01:14:09;3.22;;;1.67;;
26756;SDS011;23848;49.798;10.228;2023-05-10T01:16:38;2.75;;;1.40;;
26756;SDS011;23848;49.798;10.228;2023-05-10T01:19:08;2.95;;;1.55;;
26756;SDS011;23848;49.798;10.228;2023-05-10T01:21:42;3.17;;;1.45;;
26756;SDS011;23848;49.798;10.228;2023-05-10T01:29:49;3.27;;;1.53;;
26756;SDS011;23848;49.798;10.228;2023-05-10T01:32:42;2.08;;;1.23;;
26756;SDS011;23848;49.798;10.228;2023-05-10T01:35:13;3.92;;;1.52;;
26756;SDS011;23848;49.798;10.228;2023-05-10T01:37:45;3.42;;;1.52;;
26756;SDS011;23848;49.798;10.228;2023-05-10T01:40:17;4.45;;;1.90;;
26756;SDS011;23848;49.798;10.228;2023-05-10T01:42:47;2.53;;;1.50;;
26756;SDS011;23848;49.798;10.228;2023-05-10T01:45:19;3.28;;;1.65;;
26756;SDS011;23848;49.798;10.228;2023-05-10T01:47:53;2.30;;;1.67;;
26756;SDS011;23848;49.798;10.228;2023-05-10T01:50:22;3.45;;;1.40;;
26756;SDS011;23848;49.798;10.228;2023-05-10T01:52:53;2.03;;;1.20;;
26756;SDS011;23848;49.798;10.228;2023-05-10T01:55:24;2.50;;;1.50;;
26756;SDS011;23848;49.798;10.228;2023-05-10T01:57:55;2.22;;;1.27;;
26756;SDS011;23848;49.798;10.228;2023-05-10T02:00:24;3.17;;;1.40;;
26756;SDS011;23848;49.798;10.228;2023-05-10T02:02:54;2.92;;;1.60;;
26756;SDS011;23848;49.798;10.228;2023-05-10T02:05:23;2.72;;;1.67;;
26756;SDS011;23848;49.798;10.228;2023-05-10T02:07:52;2.80;;;1.65;;
26756;SDS011;23848;49.798;10.228;2023-05-10T02:10:20;3.17;;;1.80;;
26756;SDS011;23848;49.798;10.228;2023-05-10T02:12:49;2.50;;;1.52;;
26756;SDS011;23848;49.798;10.228;2023-05-10T02:15:18;2.20;;;1.48;;
26756;SDS011;23848;49.798;10.228;2023-05-10T02:17:48;2.33;;;1.40;;
26756;SDS011;23848;49.798;10.228;2023-05-10T02:20:18;2.42;;;1.42;;
26756;SDS011;23848;49.798;10.228;2023-05-10T02:22:47;2.33;;;1.40;;
26756;SDS011;23848;49.798;10.228;2023-05-10T02:25:17;1.92;;;1.08;;
26756;SDS011;23848;49.798;10.228;2023-05-10T02:27:46;2.67;;;1.10;;
26756;SDS011;23848;49.798;10.228;2023-05-10T02:30:15;2.00;;;1.10;;
26756;SDS011;23848;49.798;10.228;2023-05-10T02:32:44;2.03;;;1.10;;
26756;SDS011;23848;49.798;10.228;2023-05-10T02:35:13;2.65;;;1.08;;
26756;SDS011;23848;49.798;10.228;2023-05-10T02:37:43;1.63;;;1.00;;
26756;SDS011;23848;49.798;10.228;2023-05-10T02:40:12;1.75;;;1.05;;
26756;SDS011;23848;49.798;10.228;2023-05-10T02:42:41;1.48;;;0.93;;
26756;SDS011;23848;49.798;10.228;2023-05-10T02:45:11;1.67;;;1.00;;
26756;SDS011;23848;49.798;10.228;2023-05-10T02:47:40;3.03;;;0.98;;
26756;SDS011;23848;49.798;10.228;2023-05-10T02:50:10;1.88;;;0.80;;
26756;SDS011;23848;49.798;10.228;2023-05-10T02:52:39;1.83;;;1.00;;
26756;SDS011;23848;49.798;10.228;2023-05-10T02:55:09;1.75;;;1.00;;
26756;SDS011;23848;49.798;10.228;2023-05-10T02:57:40;1.33;;;0.80;;
26756;SDS011;23848;49.798;10.228;2023-05-10T03:00:09;1.25;;;0.90;;
26756;SDS011;23848;49.798;10.228;2023-05-10T03:02:37;1.52;;;0.90;;
26756;SDS011;23848;49.798;10.228;2023-05-10T03:05:07;1.42;;;0.70;;
26756;SDS011;23848;49.798;10.228;2023-05-10T03:07:35;1.92;;;0.80;;
26756;SDS011;23848;49.798;10.228;2023-05-10T03:10:04;1.20;;;0.70;;
26756;SDS011;23848;49.798;10.228;2023-05-10T03:12:37;1.23;;;0.70;;
26756;SDS011;23848;49.798;10.228;2023-05-10T03:15:10;1.05;;;0.60;;
26756;SDS011;23848;49.798;10.228;2023-05-10T03:17:40;1.80;;;0.93;;
26756;SDS011;23848;49.798;10.228;2023-05-10T03:22:44;1.80;;;0.85;;
26756;SDS011;23848;49.798;10.228;2023-05-10T03:25:13;1.10;;;0.70;;
26756;SDS011;23848;49.798;10.228;2023-05-10T03:27:44;1.08;;;0.60;;
26756;SDS011;23848;49.798;10.228;2023-05-10T03:30:13;1.48;;;0.88;;
26756;SDS011;23848;49.798;10.228;2023-05-10T03:32:42;1.35;;;0.80;;
26756;SDS011;23848;49.798;10.228;2023-05-10T03:35:10;1.45;;;0.88;;
26756;SDS011;23848;49.798;10.228;2023-05-10T03:37:39;1.83;;;0.70;;
26756;SDS011;23848;49.798;10.228;2023-05-10T03:40:08;1.45;;;0.60;;
26756;SDS011;23848;49.798;10.228;2023-05-10T03:42:36;1.52;;;0.93;;
26756;SDS011;23848;49.798;10.228;2023-05-10T03:45:07;1.30;;;0.80;;
26756;SDS011;23848;49.798;10.228;2023-05-10T03:47:35;0.85;;;0.65;;
26756;SDS011;23848;49.798;10.228;2023-05-10T03:50:04;1.38;;;0.70;;
26756;SDS011;23848;49.798;10.228;2023-05-10T03:52:33;1.30;;;0.80;;
26756;SDS011;23848;49.798;10.228;2023-05-10T03:55:01;1.50;;;0.80;;
26756;SDS011;23848;49.798;10.228;2023-05-10T03:57:30;1.02;;;0.63;;
26756;SDS011;23848;49.798;10.228;2023-05-10T04:00:01;1.20;;;0.70;;
26756;SDS011;23848;49.798;10.228;2023-05-10T04:02:30;1.10;;;0.63;;
26756;SDS011;23848;49.798;10.228;2023-05-10T04:04:59;1.30;;;0.60;;
26756;SDS011;23848;49.798;10.228;2023-05-10T04:07:30;1.05;;;0.50;;
26756;SDS011;23848;49.798;10.228;2023-05-10T04:09:58;1.25;;;0.65;;
26756;SDS011;23848;49.798;10.228;2023-05-10T04:12:26;1.45;;;0.88;;
26756;SDS011;23848;49.798;10.228;2023-05-10T04:15:09;1.20;;;0.70;;
26756;SDS011;23848;49.798;10.228;2023-05-10T04:17:38;1.17;;;0.70;;
26756;SDS011;23848;49.798;10.228;2023-05-10T04:20:09;1.20;;;0.80;;
26756;SDS011;23848;49.798;10.228;2023-05-10T04:22:38;2.08;;;0.80;;
26756;SDS011;23848;49.798;10.228;2023-05-10T04:25:07;1.17;;;0.70;;
26756;SDS011;23848;49.798;10.228;2023-05-10T04:27:35;1.88;;;0.80;;
26756;SDS011;23848;49.798;10.228;2023-05-10T04:30:04;2.00;;;0.70;;
26756;SDS011;23848;49.798;10.228;2023-05-10T04:32:33;1.58;;;0.80;;
26756;SDS011;23848;49.798;10.228;2023-05-10T04:35:03;1.52;;;0.85;;
26756;SDS011;23848;49.798;10.228;2023-05-10T04:37:31;1.00;;;0.60;;
26756;SDS011;23848;49.798;10.228;2023-05-10T04:40:00;1.25;;;0.77;;
26756;SDS011;23848;49.798;10.228;2023-05-10T04:42:29;2.65;;;1.00;;
26756;SDS011;23848;49.798;10.228;2023-05-10T04:44:57;1.77;;;0.80;;
26756;SDS011;23848;49.798;10.228;2023-05-10T04:47:26;1.75;;;0.90;;
26756;SDS011;23848;49.798;10.228;2023-05-10T04:49:54;1.63;;;0.90;;
26756;SDS011;23848;49.798;10.228;2023-05-10T04:52:29;1.65;;;0.90;;
26756;SDS011;23848;49.798;10.228;2023-05-10T04:54:57;1.67;;;1.02;;
26756;SDS011;23848;49.798;10.228;2023-05-10T04:57:26;2.25;;;1.05;;
26756;SDS011;23848;49.798;10.228;2023-05-10T04:59:54;1.73;;;0.98;;
26756;SDS011;23848;49.798;10.228;2023-05-10T05:02:23;1.83;;;1.10;;
26756;SDS011;23848;49.798;10.228;2023-05-10T05:04:51;1.75;;;1.00;;
26756;SDS011;23848;49.798;10.228;2023-05-10T05:07:19;1.42;;;0.90;;
26756;SDS011;23848;49.798;10.228;2023-05-10T05:09:49;1.70;;;1.05;;
26756;SDS011;23848;49.798;10.228;2023-05-10T05:12:18;2.35;;;1.10;;
26756;SDS011;23848;49.798;10.228;2023-05-10T05:14:46;2.00;;;1.00;;
26756;SDS011;23848;49.798;10.228;2023-05-10T05:17:14;2.28;;;1.00;;
26756;SDS011;23848;49.798;10.228;2023-05-10T05:19:43;1.80;;;1.00;;
26756;SDS011;23848;49.798;10.228;2023-05-10T05:22:11;1.80;;;1.00;;
26756;SDS011;23848;49.798;10.228;2023-05-10T05:24:39;2.08;;;0.95;;
26756;SDS011;23848;49.798;10.228;2023-05-10T05:27:10;1.60;;;0.90;;
26756;SDS011;23848;49.798;10.228;2023-05-10T05:29:38;1.83;;;1.02;;
26756;SDS011;23848;49.798;10.228;2023-05-10T05:32:06;1.75;;;1.00;;
26756;SDS011;23848;49.798;10.228;2023-05-10T05:34:35;1.83;;;0.90;;
26756;SDS011;23848;49.798;10.228;2023-05-10T05:37:03;2.72;;;1.17;;
26756;SDS011;23848;49.798;10.228;2023-05-10T05:39:32;2.13;;;1.05;;
26756;SDS011;23848;49.798;10.228;2023-05-10T05:42:00;1.50;;;0.90;;
26756;SDS011;23848;49.798;10.228;2023-05-10T05:44:30;2.50;;;0.98;;
26756;SDS011;23848;49.798;10.228;2023-05-10T05:46:58;1.58;;;0.90;;
26756;SDS011;23848;49.798;10.228;2023-05-10T05:49:26;1.88;;;1.20;;
26756;SDS011;23848;49.798;10.228;2023-05-10T05:51:58;3.05;;;1.13;;
26756;SDS011;23848;49.798;10.228;2023-05-10T05:54:26;2.28;;;1.20;;
26756;SDS011;23848;49.798;10.228;2023-05-10T05:56:55;1.55;;;1.02;;
26756;SDS011;23848;49.798;10.228;2023-05-10T05:59:26;1.98;;;1.00;;
26756;SDS011;23848;49.798;10.228;2023-05-10T06:01:56;2.65;;;1.00;;
26756;SDS011;23848;49.798;10.228;2023-05-10T06:04:25;1.83;;;0.90;;
26756;SDS011;23848;49.798;10.228;2023-05-10T06:06:53;1.80;;;1.00;;
26756;SDS011;23848;49.798;10.228;2023-05-10T06:09:22;2.83;;;1.27;;
26756;SDS011;23848;49.798;10.228;2023-05-10T06:11:53;3.40;;;1.10;;
26756;SDS011;23848;49.798;10.228;2023-05-10T06:14:22;1.58;;;0.98;;
26756;SDS011;23848;49.798;10.228;2023-05-10T06:16:51;1.92;;;1.00;;
26756;SDS011;23848;49.798;10.228;2023-05-10T06:19:21;1.85;;;0.98;;
26756;SDS011;23848;49.798;10.228;2023-05-10T06:21:49;1.52;;;0.90;;
26756;SDS011;23848;49.798;10.228;2023-05-10T06:24:19;3.22;;;1.00;;
26756;SDS011;23848;49.798;10.228;2023-05-10T06:26:48;2.22;;;0.90;;
26756;SDS011;23848;49.798;10.228;2023-05-10T06:29:16;1.92;;;1.00;;
26756;SDS011;23848;49.798;10.228;2023-05-10T06:31:45;1.75;;;1.00;;
26756;SDS011;23848;49.798;10.228;2023-05-10T06:34:14;1.58;;;0.95;;
26756;SDS011;23848;49.798;10.228;2023-05-10T06:36:44;2.33;;;1.30;;
26756;SDS011;23848;49.798;10.228;2023-05-10T06:39:13;2.05;;;1.02;;
26756;SDS011;23848;49.798;10.228;2023-05-10T06:41:42;2.35;;;1.08;;
26756;SDS011;23848;49.798;10.228;2023-05-10T06:44:10;2.17;;;0.90;;
26756;SDS011;23848;49.798;10.228;2023-05-10T06:46:39;2.67;;;1.08;;
26756;SDS011;23848;49.798;10.228;2023-05-10T06:49:08;3.40;;;1.23;;
26756;SDS011;23848;49.798;10.228;2023-05-10T06:51:36;2.35;;;1.10;;
26756;SDS011;23848;49.798;10.228;2023-05-10T06:54:06;2.00;;;1.10;;
26756;SDS011;23848;49.798;10.228;2023-05-10T06:56:35;1.95;;;1.10;;
26756;SDS011;23848;49.798;10.228;2023-05-10T06:59:04;3.58;;;1.55;;
26756;SDS011;23848;49.798;10.228;2023-05-10T07:01:33;4.65;;;1.52;;
26756;SDS011;23848;49.798;10.228;2023-05-10T07:04:01;2.58;;;1.48;;
26756;SDS011;23848;49.798;10.228;2023-05-10T07:06:30;2.53;;;1.30;;
26756;SDS011;23848;49.798;10.228;2023-05-10T07:08:59;4.28;;;1.35;;
26756;SDS011;23848;49.798;10.228;2023-05-10T07:11:30;2.80;;;1.25;;
26756;SDS011;23848;49.798;10.228;2023-05-10T07:13:59;2.22;;;1.20;;
26756;SDS011;23848;49.798;10.228;2023-05-10T07:16:27;2.30;;;1.30;;
26756;SDS011;23848;49.798;10.228;2023-05-10T07:18:56;2.90;;;1.30;;
26756;SDS011;23848;49.798;10.228;2023-05-10T07:21:25;2.63;;;1.30;;
26756;SDS011;23848;49.798;10.228;2023-05-10T07:23:55;3.05;;;1.52;;
26756;SDS011;23848;49.798;10.228;2023-05-10T07:26:23;2.35;;;1.38;;
26756;SDS011;23848;49.798;10.228;2023-05-10T07:28:54;3.38;;;1.40;;
26756;SDS011;23848;49.798;10.228;2023-05-10T07:31:22;2.67;;;1.30;;
26756;SDS011;23848;49.798;10.228;2023-05-10T07:33:53;2.40;;;1.40;;
26756;SDS011;23848;49.798;10.228;2023-05-10T07:36:22;1.75;;;1.10;;
26756;SDS011;23848;49.798;10.228;2023-05-10T07:38:50;3.65;;;1.80;;
26756;SDS011;23848;49.798;10.228;2023-05-10T07:41:19;3.05;;;1.33;;
26756;SDS011;23848;49.798;10.228;2023-05-10T07:43:48;4.07;;;1.33;;
26756;SDS011;23848;49.798;10.228;2023-05-10T07:46:19;4.03;;;1.67;;
26756;SDS011;23848;49.798;10.228;2023-05-10T07:48:48;3.05;;;1.08;;
26756;SDS011;23848;49.798;10.228;2023-05-10T07:51:17;2.10;;;1.30;;
26756;SDS011;23848;49.798;10.228;2023-05-10T07:53:45;3.15;;;1.48;;
26756;SDS011;23848;49.798;10.228;2023-05-10T07:56:20;4.10;;;1.50;;
26756;SDS011;23848;49.798;10.228;2023-05-10T07:58:56;3.25;;;1.42;;
26756;SDS011;23848;49.798;10.228;2023-05-10T08:01:29;2.38;;;1.45;;
26756;SDS011;23848;49.798;10.228;2023-05-10T08:03:58;5.33;;;1.60;;
26756;SDS011;23848;49.798;10.228;2023-05-10T08:06:27;3.90;;;1.42;;
26756;SDS011;23848;49.798;10.228;2023-05-10T08:08:56;3.42;;;1.40;;
26756;SDS011;23848;49.798;10.228;2023-05-10T08:11:34;5.53;;;1.80;;
26756;SDS011;23848;49.798;10.228;2023-05-10T08:14:03;5.22;;;1.50;;
26756;SDS011;23848;49.798;10.228;2023-05-10T08:16:33;3.17;;;1.55;;
26756;SDS011;23848;49.798;10.228;2023-05-10T08:19:02;4.05;;;1.30;;
26756;SDS011;23848;49.798;10.228;2023-05-10T08:21:31;4.10;;;1.42;;
26756;SDS011;23848;49.798;10.228;2023-05-10T08:24:00;2.45;;;1.50;;
26756;SDS011;23848;49.798;10.228;2023-05-10T08:26:30;3.72;;;1.45;;
26756;SDS011;23848;49.798;10.228;2023-05-10T08:29:00;3.03;;;1.55;;
26756;SDS011;23848;49.798;10.228;2023-05-10T08:31:29;8.10;;;1.95;;
26756;SDS011;23848;49.798;10.228;2023-05-10T08:34:02;1.95;;;1.20;;
26756;SDS011;23848;49.798;10.228;2023-05-10T08:36:30;2.92;;;1.67;;
26756;SDS011;23848;49.798;10.228;2023-05-10T08:39:00;4.97;;;1.52;;
26756;SDS011;23848;49.798;10.228;2023-05-10T08:41:29;2.97;;;1.40;;
26756;SDS011;23848;49.798;10.228;2023-05-10T08:44:00;2.33;;;1.50;;
26756;SDS011;23848;49.798;10.228;2023-05-10T08:46:31;6.30;;;1.60;;
26756;SDS011;23848;49.798;10.228;2023-05-10T08:49:09;3.80;;;1.48;;
26756;SDS011;23848;49.798;10.228;2023-05-10T08:51:40;2.70;;;1.45;;
26756;SDS011;23848;49.798;10.228;2023-05-10T08:54:14;3.00;;;1.60;;
26756;SDS011;23848;49.798;10.228;2023-05-10T08:56:49;2.63;;;1.55;;
26756;SDS011;23848;49.798;10.228;2023-05-10T08:59:19;2.58;;;1.40;;
26756;SDS011;23848;49.798;10.228;2023-05-10T09:01:58;2.40;;;1.20;;
26756;SDS011;23848;49.798;10.228;2023-05-10T09:04:34;4.18;;;1.38;;
26756;SDS011;23848;49.798;10.228;2023-05-10T09:07:02;3.45;;;1.98;;
26756;SDS011;23848;49.798;10.228;2023-05-10T09:09:44;2.85;;;1.70;;
26756;SDS011;23848;49.798;10.228;2023-05-10T09:12:24;3.58;;;1.40;;
26756;SDS011;23848;49.798;10.228;2023-05-10T09:14:55;2.25;;;1.17;;
26756;SDS011;23848;49.798;10.228;2023-05-10T09:20:03;3.75;;;1.77;;
26756;SDS011;23848;49.798;10.228;2023-05-10T09:22:35;2.35;;;1.33;;
26756;SDS011;23848;49.798;10.228;2023-05-10T09:25:09;2.55;;;1.30;;
26756;SDS011;23848;49.798;10.228;2023-05-10T09:27:49;3.42;;;1.52;;
26756;SDS011;23848;49.798;10.228;2023-05-10T09:30:23;2.95;;;1.55;;
26756;SDS011;23848;49.798;10.228;2023-05-10T09:33:02;2.88;;;1.35;;
26756;SDS011;23848;49.798;10.228;2023-05-10T09:38:25;4.38;;;1.60;;
26756;SDS011;23848;49.798;10.228;2023-05-10T09:40:56;4.18;;;1.42;;
26756;SDS011;23848;49.798;10.228;2023-05-10T09:43:39;4.15;;;1.80;;
26756;SDS011;23848;49.798;10.228;2023-05-10T09:46:23;4.85;;;2.72;;
26756;SDS011;23848;49.798;10.228;2023-05-10T09:48:52;2.58;;;1.65;;
26756;SDS011;23848;49.798;10.228;2023-05-10T09:51:27;4.93;;;2.40;;
26756;SDS011;23848;49.798;10.228;2023-05-10T09:54:23;3.17;;;1.70;;
26756;SDS011;23848;49.798;10.228;2023-05-10T09:56:51;2.40;;;1.30;;
26756;SDS011;23848;49.798;10.228;2023-05-10T09:59:30;5.43;;;1.50;;
26756;SDS011;23848;49.798;10.228;2023-05-10T10:02:25;4.18;;;1.95;;
26756;SDS011;23848;49.798;10.228;2023-05-10T10:08:07;3.25;;;1.80;;
26756;SDS011;23848;49.798;10.228;2023-05-10T10:13:33;3.20;;;1.70;;
26756;SDS011;23848;49.798;10.228;2023-05-10T10:16:17;4.88;;;1.92;;
26756;SDS011;23848;49.798;10.228;2023-05-10T10:26:42;2.70;;;2.00;;
26756;SDS011;23848;49.798;10.228;2023-05-10T11:04:27;2.47;;;0.93;;
26756;SDS011;23848;49.798;10.228;2023-05-10T11:09:14;2.08;;;1.20;;
26756;SDS011;23848;49.798;10.228;2023-05-10T11:38:23;2.35;;;0.90;;
26756;SDS011;23848;49.798;10.228;2023-05-10T11:41:31;2.28;;;1.20;;
26756;SDS011;23848;49.798;10.228;2023-05-10T11:44:32;2.03;;;1.02;;
26756;SDS011;23848;49.798;10.228;2023-05-10T11:47:51;2.95;;;1.13;;
26756;SDS011;23848;49.798;10.228;2023-05-10T12:14:04;2.65;;;1.00;;
26756;SDS011;23848;49.798;10.228;2023-05-10T12:27:27;4.05;;;1.38;;
26756;SDS011;23848;49.798;10.228;2023-05-10T12:30:09;2.05;;;1.10;;
26756;SDS011;23848;49.798;10.228;2023-05-10T12:32:58;2.83;;;1.00;;
26756;SDS011;23848;49.798;10.228;2023-05-10T12:35:46;1.77;;;0.95;;
26756;SDS011;23848;49.798;10.228;2023-05-10T12:38:24;2.67;;;1.00;;
26756;SDS011;23848;49.798;10.228;2023-05-10T12:41:00;2.05;;;1.13;;
26756;SDS011;23848;49.798;10.228;2023-05-10T12:43:35;2.67;;;1.13;;
26756;SDS011;23848;49.798;10.228;2023-05-10T12:46:28;3.70;;;1.05;;
26756;SDS011;23848;49.798;10.228;2023-05-10T12:49:04;2.00;;;1.00;;
26756;SDS011;23848;49.798;10.228;2023-05-10T12:55:09;3.75;;;1.20;;
26756;SDS011;23848;49.798;10.228;2023-05-10T13:19:16;2.97;;;1.00;;
26756;SDS011;23848;49.798;10.228;2023-05-10T13:39:27;3.05;;;1.05;;
26756;SDS011;23848;49.798;10.228;2023-05-10T13:42:47;3.15;;;1.00;;
26756;SDS011;23848;49.798;10.228;2023-05-10T13:45:55;3.63;;;1.45;;
26756;SDS011;23848;49.798;10.228;2023-05-10T14:04:40;3.75;;;1.38;;
26756;SDS011;23848;49.798;10.228;2023-05-10T14:10:51;2.22;;;1.15;;
26756;SDS011;23848;49.798;10.228;2023-05-10T14:13:39;2.55;;;1.33;;
26756;SDS011;23848;49.798;10.228;2023-05-10T14:16:24;3.40;;;1.70;;
26756;SDS011;23848;49.798;10.228;2023-05-10T14:19:17;2.30;;;1.52;;
26756;SDS011;23848;49.798;10.228;2023-05-10T14:22:13;3.75;;;1.70;;
26756;SDS011;23848;49.798;10.228;2023-05-10T14:24:44;2.40;;;1.52;;
26756;SDS011;23848;49.798;10.228;2023-05-10T14:27:39;3.08;;;1.30;;
26756;SDS011;23848;49.798;10.228;2023-05-10T14:30:51;2.40;;;1.52;;
26756;SDS011;23848;49.798;10.228;2023-05-10T14:33:24;3.33;;;1.30;;
26756;SDS011;23848;49.798;10.228;2023-05-10T14:36:10;3.35;;;1.50;;
26756;SDS011;23848;49.798;10.228;2023-05-10T14:42:10;2.88;;;1.40;;
26756;SDS011;23848;49.798;10.228;2023-05-10T14:46:49;3.03;;;1.77;;
26756;SDS011;23848;49.798;10.228;2023-05-10T14:47:48;3.35;;;1.85;;
26756;SDS011;23848;49.798;10.228;2023-05-10T14:50:37;3.55;;;1.50;;
26756;SDS011;23848;49.798;10.228;2023-05-10T14:53:40;3.00;;;1.73;;
26756;SDS011;23848;49.798;10.228;2023-05-10T14:56:22;6.15;;;1.58;;
26756;SDS011;23848;49.798;10.228;2023-05-10T15:06:32;3.20;;;1.93;;
26756;SDS011;23848;49.798;10.228;2023-05-10T15:13:18;2.50;;;1.63;;
26756;SDS011;23848;49.798;10.228;2023-05-10T15:16:14;3.20;;;1.48;;
26756;SDS011;23848;49.798;10.228;2023-05-10T15:19:01;4.20;;;1.58;;
26756;SDS011;23848;49.798;10.228;2023-05-10T15:21:43;2.65;;;1.45;;
26756;SDS011;23848;49.798;10.228;2023-05-10T15:25:20;2.72;;;1.40;;
26756;SDS011;23848;49.798;10.228;2023-05-10T15:28:37;2.65;;;1.70;;
26756;SDS011;23848;49.798;10.228;2023-05-10T15:31:20;3.92;;;1.50;;
26756;SDS011;23848;49.798;10.228;2023-05-10T15:33:57;4.05;;;1.60;;
26756;SDS011;23848;49.798;10.228;2023-05-10T15:36:38;3.80;;;1.42;;
26756;SDS011;23848;49.798;10.228;2023-05-10T15:39:15;3.17;;;1.52;;
26756;SDS011;23848;49.798;10.228;2023-05-10T15:45:32;2.70;;;1.73;;
26756;SDS011;23848;49.798;10.228;2023-05-10T15:48:35;4.28;;;1.90;;
26756;SDS011;23848;49.798;10.228;2023-05-10T16:04:21;3.10;;;1.25;;
26756;SDS011;23848;49.798;10.228;2023-05-10T16:07:34;2.78;;;1.50;;
26756;SDS011;23848;49.798;10.228;2023-05-10T16:10:18;3.28;;;1.75;;
26756;SDS011;23848;49.798;10.228;2023-05-10T16:13:25;2.60;;;1.35;;
26756;SDS011;23848;49.798;10.228;2023-05-10T16:16:07;2.13;;;1.33;;
26756;SDS011;23848;49.798;10.228;2023-05-10T16:18:53;2.55;;;1.45;;
26756;SDS011;23848;49.798;10.228;2023-05-10T16:21:54;2.53;;;1.57;;
26756;SDS011;23848;49.798;10.228;2023-05-10T16:24:47;2.95;;;1.45;;
26756;SDS011;23848;49.798;10.228;2023-05-10T16:27:55;3.20;;;1.70;;
26756;SDS011;23848;49.798;10.228;2023-05-10T16:34:01;3.13;;;1.65;;
26756;SDS011;23848;49.798;10.228;2023-05-10T16:36:55;4.28;;;2.55;;
26756;SDS011;23848;49.798;10.228;2023-05-10T16:43:05;4.28;;;2.53;;
26756;SDS011;23848;49.798;10.228;2023-05-10T16:45:52;2.90;;;1.90;;
26756;SDS011;23848;49.798;10.228;2023-05-10T16:49:26;3.00;;;1.90;;
26756;SDS011;23848;49.798;10.228;2023-05-10T16:56:16;3.25;;;2.08;;
26756;SDS011;23848;49.798;10.228;2023-05-10T16:59:22;2.58;;;1.85;;
26756;SDS011;23848;49.798;10.228;2023-05-10T17:02:23;3.20;;;2.58;;
26756;SDS011;23848;49.798;10.228;2023-05-10T17:05:45;2.40;;;1.70;;
26756;SDS011;23848;49.798;10.228;2023-05-10T17:08:44;2.70;;;1.50;;
26756;SDS011;23848;49.798;10.228;2023-05-10T17:11:48;3.08;;;1.65;;
26756;SDS011;23848;49.798;10.228;2023-05-10T17:14:25;3.13;;;1.80;;
26756;SDS011;23848;49.798;10.228;2023-05-10T17:17:08;2.72;;;1.40;;
26756;SDS011;23848;49.798;10.228;2023-05-10T17:19:45;2.28;;;1.50;;
26756;SDS011;23848;49.798;10.228;2023-05-10T17:22:38;2.05;;;1.15;;
26756;SDS011;23848;49.798;10.228;2023-05-10T17:25:10;3.95;;;1.42;;
26756;SDS011;23848;49.798;10.228;2023-05-10T19:05:13;2.42;;;1.23;;
26756;SDS011;23848;49.798;10.228;2023-05-10T19:08:32;4.20;;;1.75;;
26756;SDS011;23848;49.798;10.228;2023-05-10T19:11:34;3.22;;;1.40;;
26756;SDS011;23848;49.798;10.228;2023-05-10T19:14:45;2.42;;;1.27;;
26756;SDS011;23848;49.798;10.228;2023-05-10T19:17:45;2.88;;;1.45;;
26756;SDS011;23848;49.798;10.228;2023-05-10T19:24:09;4.20;;;2.67;;
26756;SDS011;23848;49.798;10.228;2023-05-10T19:30:41;2.13;;;1.38;;
26756;SDS011;23848;49.798;10.228;2023-05-10T19:33:40;3.47;;;1.40;;
26756;SDS011;23848;49.798;10.228;2023-05-10T19:36:33;3.50;;;1.77;;
